sensor_id;sensor_type;location;lat;lon;timestamp;P1;durP1;ratioP1;P2;durP2;ratioP2
36205;SDS011;22242;48.796;9.930;2022-11-20T00:01:23;6.32;;;5.28;;
36205;SDS011;22242;48.796;9.930;2022-11-20T00:03:52;10.50;;;5.57;;
36205;SDS011;22242;48.796;9.930;2022-11-20T00:06:20;7.63;;;5.47;;
36205;SDS011;22242;48.796;9.930;2022-11-20T00:08:47;5.78;;;4.65;;
36205;SDS011;22242;48.796;9.930;2022-11-20T00:11:15;6.22;;;5.30;;
36205;SDS011;22242;48.796;9.930;2022-11-20T00:13:43;6.80;;;4.75;;
36205;SDS011;22242;48.796;9.930;2022-11-20T00:16:12;5.90;;;5.30;;
36205;SDS011;22242;48.796;9.930;2022-11-20T00:18:40;8.65;;;5.13;;
36205;SDS011;22242;48.796;9.930;2022-11-20T00:21:10;12.93;;;7.25;;
36205;SDS011;22242;48.796;9.930;2022-11-20T00:23:38;8.68;;;5.38;;
36205;SDS011;22242;48.796;9.930;2022-11-20T00:26:07;7.72;;;4.78;;
36205;SDS011;22242;48.796;9.930;2022-11-20T00:28:35;50.78;;;6.90;;
36205;SDS011;22242;48.796;9.930;2022-11-20T00:31:02;8.02;;;5.43;;
36205;SDS011;22242;48.796;9.930;2022-11-20T00:33:31;7.93;;;4.70;;
36205;SDS011;22242;48.796;9.930;2022-11-20T00:35:59;8.10;;;4.57;;
36205;SDS011;22242;48.796;9.930;2022-11-20T00:38:27;6.35;;;4.30;;
36205;SDS011;22242;48.796;9.930;2022-11-20T00:40:55;5.93;;;4.63;;
36205;SDS011;22242;48.796;9.930;2022-11-20T00:43:23;7.45;;;4.72;;
36205;SDS011;22242;48.796;9.930;2022-11-20T00:45:50;5.78;;;4.72;;
36205;SDS011;22242;48.796;9.930;2022-11-20T00:48:17;7.93;;;5.15;;
36205;SDS011;22242;48.796;9.930;2022-11-20T00:50:45;7.47;;;4.70;;
36205;SDS011;22242;48.796;9.930;2022-11-20T00:53:12;5.82;;;4.70;;
36205;SDS011;22242;48.796;9.930;2022-11-20T00:55:38;6.85;;;4.53;;
36205;SDS011;22242;48.796;9.930;2022-11-20T00:58:06;4.82;;;3.92;;
36205;SDS011;22242;48.796;9.930;2022-11-20T01:00:32;8.20;;;4.70;;
36205;SDS011;22242;48.796;9.930;2022-11-20T01:03:00;6.45;;;4.50;;
36205;SDS011;22242;48.796;9.930;2022-11-20T01:05:27;7.25;;;4.20;;
36205;SDS011;22242;48.796;9.930;2022-11-20T01:07:55;7.85;;;4.07;;
36205;SDS011;22242;48.796;9.930;2022-11-20T01:10:22;5.30;;;4.32;;
36205;SDS011;22242;48.796;9.930;2022-11-20T01:12:48;6.65;;;4.38;;
36205;SDS011;22242;48.796;9.930;2022-11-20T01:15:35;4.47;;;3.47;;
36205;SDS011;22242;48.796;9.930;2022-11-20T01:18:02;6.20;;;3.78;;
36205;SDS011;22242;48.796;9.930;2022-11-20T01:20:30;4.97;;;3.90;;
36205;SDS011;22242;48.796;9.930;2022-11-20T01:23:01;5.55;;;4.22;;
36205;SDS011;22242;48.796;9.930;2022-11-20T01:25:28;5.95;;;4.30;;
36205;SDS011;22242;48.796;9.930;2022-11-20T01:27:55;4.28;;;3.45;;
36205;SDS011;22242;48.796;9.930;2022-11-20T01:30:22;5.70;;;3.58;;
36205;SDS011;22242;48.796;9.930;2022-11-20T01:32:49;6.00;;;3.72;;
36205;SDS011;22242;48.796;9.930;2022-11-20T01:35:16;6.32;;;3.22;;
36205;SDS011;22242;48.796;9.930;2022-11-20T01:37:43;3.90;;;3.35;;
36205;SDS011;22242;48.796;9.930;2022-11-20T01:40:11;5.63;;;3.63;;
36205;SDS011;22242;48.796;9.930;2022-11-20T01:42:38;4.13;;;3.42;;
36205;SDS011;22242;48.796;9.930;2022-11-20T01:45:50;4.93;;;3.28;;
36205;SDS011;22242;48.796;9.930;2022-11-20T01:48:23;4.35;;;3.60;;
36205;SDS011;22242;48.796;9.930;2022-11-20T01:50:53;8.57;;;3.60;;
36205;SDS011;22242;48.796;9.930;2022-11-20T01:53:21;4.80;;;3.13;;
36205;SDS011;22242;48.796;9.930;2022-11-20T01:55:55;6.97;;;3.33;;
36205;SDS011;22242;48.796;9.930;2022-11-20T01:58:25;6.05;;;3.03;;
36205;SDS011;22242;48.796;9.930;2022-11-20T02:00:55;3.40;;;2.75;;
36205;SDS011;22242;48.796;9.930;2022-11-20T02:03:22;4.70;;;2.67;;
36205;SDS011;22242;48.796;9.930;2022-11-20T02:05:51;4.68;;;2.92;;
36205;SDS011;22242;48.796;9.930;2022-11-20T02:08:22;5.20;;;3.10;;
36205;SDS011;22242;48.796;9.930;2022-11-20T02:10:50;5.60;;;3.55;;
36205;SDS011;22242;48.796;9.930;2022-11-20T02:13:18;3.65;;;2.78;;
36205;SDS011;22242;48.796;9.930;2022-11-20T02:16:02;3.88;;;2.90;;
36205;SDS011;22242;48.796;9.930;2022-11-20T02:18:30;5.03;;;3.33;;
36205;SDS011;22242;48.796;9.930;2022-11-20T02:20:58;4.88;;;3.17;;
36205;SDS011;22242;48.796;9.930;2022-11-20T02:23:31;3.17;;;2.88;;
36205;SDS011;22242;48.796;9.930;2022-11-20T02:26:04;2.78;;;2.50;;
36205;SDS011;22242;48.796;9.930;2022-11-20T02:28:35;3.50;;;2.72;;
36205;SDS011;22242;48.796;9.930;2022-11-20T02:31:02;2.92;;;2.60;;
36205;SDS011;22242;48.796;9.930;2022-11-20T02:33:29;3.85;;;3.42;;
36205;SDS011;22242;48.796;9.930;2022-11-20T02:35:55;4.43;;;2.90;;
36205;SDS011;22242;48.796;9.930;2022-11-20T02:38:22;4.22;;;3.28;;
36205;SDS011;22242;48.796;9.930;2022-11-20T02:40:49;4.38;;;2.83;;
36205;SDS011;22242;48.796;9.930;2022-11-20T02:43:17;3.25;;;2.65;;
36205;SDS011;22242;48.796;9.930;2022-11-20T02:45:44;6.35;;;2.72;;
36205;SDS011;22242;48.796;9.930;2022-11-20T02:48:11;3.42;;;2.55;;
36205;SDS011;22242;48.796;9.930;2022-11-20T02:50:38;4.60;;;2.40;;
36205;SDS011;22242;48.796;9.930;2022-11-20T02:53:06;3.25;;;2.58;;
36205;SDS011;22242;48.796;9.930;2022-11-20T02:55:33;2.67;;;2.47;;
36205;SDS011;22242;48.796;9.930;2022-11-20T02:57:59;3.92;;;2.20;;
36205;SDS011;22242;48.796;9.930;2022-11-20T03:00:28;2.67;;;2.38;;
36205;SDS011;22242;48.796;9.930;2022-11-20T03:02:54;2.60;;;2.22;;
36205;SDS011;22242;48.796;9.930;2022-11-20T03:05:21;3.78;;;2.20;;
36205;SDS011;22242;48.796;9.930;2022-11-20T03:07:48;4.43;;;2.55;;
36205;SDS011;22242;48.796;9.930;2022-11-20T03:10:15;4.97;;;2.38;;
36205;SDS011;22242;48.796;9.930;2022-11-20T03:12:42;4.18;;;2.40;;
36205;SDS011;22242;48.796;9.930;2022-11-20T03:15:09;5.30;;;2.50;;
36205;SDS011;22242;48.796;9.930;2022-11-20T03:17:37;4.13;;;2.42;;
36205;SDS011;22242;48.796;9.930;2022-11-20T03:20:05;2.88;;;2.20;;
36205;SDS011;22242;48.796;9.930;2022-11-20T03:22:34;2.83;;;2.50;;
36205;SDS011;22242;48.796;9.930;2022-11-20T03:25:00;6.25;;;2.47;;
36205;SDS011;22242;48.796;9.930;2022-11-20T03:27:31;4.70;;;2.78;;
36205;SDS011;22242;48.796;9.930;2022-11-20T03:29:59;4.78;;;3.25;;
36205;SDS011;22242;48.796;9.930;2022-11-20T03:32:26;3.60;;;2.85;;
36205;SDS011;22242;48.796;9.930;2022-11-20T03:34:54;3.25;;;2.78;;
36205;SDS011;22242;48.796;9.930;2022-11-20T03:37:21;3.95;;;3.05;;
36205;SDS011;22242;48.796;9.930;2022-11-20T03:39:48;4.53;;;3.58;;
36205;SDS011;22242;48.796;9.930;2022-11-20T03:42:15;3.33;;;3.03;;
36205;SDS011;22242;48.796;9.930;2022-11-20T03:44:55;6.47;;;3.10;;
36205;SDS011;22242;48.796;9.930;2022-11-20T03:47:22;9.00;;;3.28;;
36205;SDS011;22242;48.796;9.930;2022-11-20T03:49:49;3.65;;;3.20;;
36205;SDS011;22242;48.796;9.930;2022-11-20T03:52:17;4.60;;;2.88;;
36205;SDS011;22242;48.796;9.930;2022-11-20T03:54:44;4.22;;;2.80;;
36205;SDS011;22242;48.796;9.930;2022-11-20T03:57:11;4.07;;;2.80;;
36205;SDS011;22242;48.796;9.930;2022-11-20T03:59:38;2.65;;;2.45;;
36205;SDS011;22242;48.796;9.930;2022-11-20T04:02:05;5.50;;;3.08;;
36205;SDS011;22242;48.796;9.930;2022-11-20T04:04:32;5.15;;;2.58;;
36205;SDS011;22242;48.796;9.930;2022-11-20T04:06:58;5.85;;;2.80;;
36205;SDS011;22242;48.796;9.930;2022-11-20T04:09:27;3.10;;;2.40;;
36205;SDS011;22242;48.796;9.930;2022-11-20T04:11:53;2.90;;;2.40;;
36205;SDS011;22242;48.796;9.930;2022-11-20T04:14:20;4.10;;;2.60;;
36205;SDS011;22242;48.796;9.930;2022-11-20T04:16:47;2.70;;;2.35;;
36205;SDS011;22242;48.796;9.930;2022-11-20T04:19:15;4.60;;;2.65;;
36205;SDS011;22242;48.796;9.930;2022-11-20T04:21:42;3.00;;;2.70;;
36205;SDS011;22242;48.796;9.930;2022-11-20T04:24:10;6.88;;;2.90;;
36205;SDS011;22242;48.796;9.930;2022-11-20T04:26:38;2.70;;;2.50;;
36205;SDS011;22242;48.796;9.930;2022-11-20T04:29:05;4.55;;;2.80;;
36205;SDS011;22242;48.796;9.930;2022-11-20T04:31:33;3.70;;;3.00;;
36205;SDS011;22242;48.796;9.930;2022-11-20T04:34:01;3.38;;;2.60;;
36205;SDS011;22242;48.796;9.930;2022-11-20T04:36:29;5.60;;;2.83;;
36205;SDS011;22242;48.796;9.930;2022-11-20T04:38:56;4.53;;;2.60;;
36205;SDS011;22242;48.796;9.930;2022-11-20T04:41:25;3.65;;;2.60;;
36205;SDS011;22242;48.796;9.930;2022-11-20T04:43:55;4.25;;;2.85;;
36205;SDS011;22242;48.796;9.930;2022-11-20T04:46:24;4.82;;;2.60;;
36205;SDS011;22242;48.796;9.930;2022-11-20T04:48:52;4.95;;;2.80;;
36205;SDS011;22242;48.796;9.930;2022-11-20T04:51:19;3.03;;;2.60;;
36205;SDS011;22242;48.796;9.930;2022-11-20T04:53:46;3.05;;;2.30;;
36205;SDS011;22242;48.796;9.930;2022-11-20T04:56:13;2.80;;;2.60;;
36205;SDS011;22242;48.796;9.930;2022-11-20T04:58:40;3.60;;;2.60;;
36205;SDS011;22242;48.796;9.930;2022-11-20T05:01:09;3.20;;;2.58;;
36205;SDS011;22242;48.796;9.930;2022-11-20T05:03:38;4.63;;;2.53;;
36205;SDS011;22242;48.796;9.930;2022-11-20T05:06:05;4.93;;;2.40;;
36205;SDS011;22242;48.796;9.930;2022-11-20T05:08:33;2.78;;;2.30;;
36205;SDS011;22242;48.796;9.930;2022-11-20T05:11:01;3.03;;;2.53;;
36205;SDS011;22242;48.796;9.930;2022-11-20T05:13:28;3.05;;;2.45;;
36205;SDS011;22242;48.796;9.930;2022-11-20T05:15:55;4.05;;;2.30;;
36205;SDS011;22242;48.796;9.930;2022-11-20T05:18:28;6.80;;;2.63;;
36205;SDS011;22242;48.796;9.930;2022-11-20T05:20:55;3.42;;;2.25;;
36205;SDS011;22242;48.796;9.930;2022-11-20T05:23:22;3.00;;;2.17;;
36205;SDS011;22242;48.796;9.930;2022-11-20T05:25:51;3.75;;;2.28;;
36205;SDS011;22242;48.796;9.930;2022-11-20T05:28:19;2.08;;;1.80;;
36205;SDS011;22242;48.796;9.930;2022-11-20T05:30:46;6.40;;;2.40;;
36205;SDS011;22242;48.796;9.930;2022-11-20T05:33:13;2.38;;;2.17;;
36205;SDS011;22242;48.796;9.930;2022-11-20T05:35:41;4.90;;;2.20;;
36205;SDS011;22242;48.796;9.930;2022-11-20T05:38:09;3.08;;;2.30;;
36205;SDS011;22242;48.796;9.930;2022-11-20T05:40:35;3.90;;;2.42;;
36205;SDS011;22242;48.796;9.930;2022-11-20T05:43:02;4.20;;;2.40;;
36205;SDS011;22242;48.796;9.930;2022-11-20T05:45:29;2.22;;;1.88;;
36205;SDS011;22242;48.796;9.930;2022-11-20T05:47:57;3.53;;;2.22;;
36205;SDS011;22242;48.796;9.930;2022-11-20T05:50:25;2.78;;;2.10;;
36205;SDS011;22242;48.796;9.930;2022-11-20T05:52:53;2.92;;;2.28;;
36205;SDS011;22242;48.796;9.930;2022-11-20T05:55:20;3.03;;;1.85;;
36205;SDS011;22242;48.796;9.930;2022-11-20T05:57:47;2.92;;;1.80;;
36205;SDS011;22242;48.796;9.930;2022-11-20T06:00:14;2.03;;;1.83;;
36205;SDS011;22242;48.796;9.930;2022-11-20T06:02:42;3.40;;;2.10;;
36205;SDS011;22242;48.796;9.930;2022-11-20T06:05:08;2.90;;;2.25;;
36205;SDS011;22242;48.796;9.930;2022-11-20T06:07:35;2.53;;;2.00;;
36205;SDS011;22242;48.796;9.930;2022-11-20T06:10:04;2.47;;;1.92;;
36205;SDS011;22242;48.796;9.930;2022-11-20T06:12:31;2.53;;;1.90;;
36205;SDS011;22242;48.796;9.930;2022-11-20T06:14:58;2.08;;;1.88;;
36205;SDS011;22242;48.796;9.930;2022-11-20T06:17:25;2.85;;;2.45;;
36205;SDS011;22242;48.796;9.930;2022-11-20T06:19:52;2.92;;;2.00;;
36205;SDS011;22242;48.796;9.930;2022-11-20T06:22:19;2.10;;;1.90;;
36205;SDS011;22242;48.796;9.930;2022-11-20T06:24:46;2.20;;;1.95;;
36205;SDS011;22242;48.796;9.930;2022-11-20T06:27:14;3.55;;;1.80;;
36205;SDS011;22242;48.796;9.930;2022-11-20T06:29:41;3.47;;;1.70;;
36205;SDS011;22242;48.796;9.930;2022-11-20T06:32:08;3.75;;;2.10;;
36205;SDS011;22242;48.796;9.930;2022-11-20T06:34:35;5.03;;;1.92;;
36205;SDS011;22242;48.796;9.930;2022-11-20T06:37:02;1.90;;;1.80;;
36205;SDS011;22242;48.796;9.930;2022-11-20T06:39:29;4.50;;;2.13;;
36205;SDS011;22242;48.796;9.930;2022-11-20T06:41:56;1.65;;;1.48;;
36205;SDS011;22242;48.796;9.930;2022-11-20T06:44:24;2.22;;;1.80;;
36205;SDS011;22242;48.796;9.930;2022-11-20T06:46:51;2.88;;;1.92;;
36205;SDS011;22242;48.796;9.930;2022-11-20T06:49:18;2.30;;;1.90;;
36205;SDS011;22242;48.796;9.930;2022-11-20T06:51:45;3.53;;;2.00;;
36205;SDS011;22242;48.796;9.930;2022-11-20T06:54:11;1.60;;;1.50;;
36205;SDS011;22242;48.796;9.930;2022-11-20T06:56:38;2.95;;;1.85;;
36205;SDS011;22242;48.796;9.930;2022-11-20T06:59:05;2.10;;;1.73;;
36205;SDS011;22242;48.796;9.930;2022-11-20T07:01:34;2.38;;;2.00;;
36205;SDS011;22242;48.796;9.930;2022-11-20T07:04:01;2.63;;;1.70;;
36205;SDS011;22242;48.796;9.930;2022-11-20T07:06:28;3.72;;;1.77;;
36205;SDS011;22242;48.796;9.930;2022-11-20T07:08:55;2.45;;;2.25;;
36205;SDS011;22242;48.796;9.930;2022-11-20T07:11:22;3.40;;;1.52;;
36205;SDS011;22242;48.796;9.930;2022-11-20T07:13:49;3.15;;;1.60;;
36205;SDS011;22242;48.796;9.930;2022-11-20T07:16:16;3.83;;;2.00;;
36205;SDS011;22242;48.796;9.930;2022-11-20T07:18:44;1.85;;;1.58;;
36205;SDS011;22242;48.796;9.930;2022-11-20T07:21:11;1.70;;;1.60;;
36205;SDS011;22242;48.796;9.930;2022-11-20T07:23:38;2.47;;;1.55;;
36205;SDS011;22242;48.796;9.930;2022-11-20T07:26:05;2.13;;;1.85;;
36205;SDS011;22242;48.796;9.930;2022-11-20T07:28:33;2.22;;;1.50;;
36205;SDS011;22242;48.796;9.930;2022-11-20T07:31:00;3.55;;;1.42;;
36205;SDS011;22242;48.796;9.930;2022-11-20T07:33:27;2.15;;;1.73;;
36205;SDS011;22242;48.796;9.930;2022-11-20T07:35:55;3.58;;;1.73;;
36205;SDS011;22242;48.796;9.930;2022-11-20T07:38:25;3.08;;;1.90;;
36205;SDS011;22242;48.796;9.930;2022-11-20T07:40:53;3.05;;;1.80;;
36205;SDS011;22242;48.796;9.930;2022-11-20T07:43:20;3.85;;;1.88;;
36205;SDS011;22242;48.796;9.930;2022-11-20T07:45:47;4.28;;;1.90;;
36205;SDS011;22242;48.796;9.930;2022-11-20T07:48:14;4.22;;;3.58;;
36205;SDS011;22242;48.796;9.930;2022-11-20T07:50:41;3.17;;;1.85;;
36205;SDS011;22242;48.796;9.930;2022-11-20T07:53:09;2.20;;;2.00;;
36205;SDS011;22242;48.796;9.930;2022-11-20T07:55:37;2.05;;;1.80;;
36205;SDS011;22242;48.796;9.930;2022-11-20T07:58:04;2.08;;;1.80;;
36205;SDS011;22242;48.796;9.930;2022-11-20T08:00:31;3.10;;;1.98;;
36205;SDS011;22242;48.796;9.930;2022-11-20T08:02:58;1.50;;;1.40;;
36205;SDS011;22242;48.796;9.930;2022-11-20T08:05:25;2.70;;;2.10;;
36205;SDS011;22242;48.796;9.930;2022-11-20T08:07:52;4.43;;;1.60;;
36205;SDS011;22242;48.796;9.930;2022-11-20T08:10:20;2.30;;;1.60;;
36205;SDS011;22242;48.796;9.930;2022-11-20T08:12:47;2.00;;;1.80;;
36205;SDS011;22242;48.796;9.930;2022-11-20T08:15:33;1.35;;;1.25;;
36205;SDS011;22242;48.796;9.930;2022-11-20T08:18:01;2.72;;;1.70;;
36205;SDS011;22242;48.796;9.930;2022-11-20T08:20:29;3.97;;;2.08;;
36205;SDS011;22242;48.796;9.930;2022-11-20T08:22:59;2.72;;;2.10;;
36205;SDS011;22242;48.796;9.930;2022-11-20T08:25:28;3.17;;;1.65;;
36205;SDS011;22242;48.796;9.930;2022-11-20T08:27:59;2.55;;;1.73;;
36205;SDS011;22242;48.796;9.930;2022-11-20T08:30:27;1.98;;;1.42;;
36205;SDS011;22242;48.796;9.930;2022-11-20T08:32:54;1.73;;;1.33;;
36205;SDS011;22242;48.796;9.930;2022-11-20T08:35:21;1.67;;;1.30;;
36205;SDS011;22242;48.796;9.930;2022-11-20T08:37:48;2.80;;;1.48;;
36205;SDS011;22242;48.796;9.930;2022-11-20T08:40:15;3.00;;;1.30;;
36205;SDS011;22242;48.796;9.930;2022-11-20T08:42:47;8.32;;;3.70;;
36205;SDS011;22242;48.796;9.930;2022-11-20T08:45:15;1.20;;;1.10;;
36205;SDS011;22242;48.796;9.930;2022-11-20T08:47:42;1.52;;;1.42;;
36205;SDS011;22242;48.796;9.930;2022-11-20T08:50:09;4.30;;;2.40;;
36205;SDS011;22242;48.796;9.930;2022-11-20T08:52:36;1.77;;;1.55;;
36205;SDS011;22242;48.796;9.930;2022-11-20T08:55:04;2.28;;;1.17;;
36205;SDS011;22242;48.796;9.930;2022-11-20T08:57:31;1.55;;;1.45;;
36205;SDS011;22242;48.796;9.930;2022-11-20T09:00:00;1.70;;;1.40;;
36205;SDS011;22242;48.796;9.930;2022-11-20T09:02:27;4.82;;;2.28;;
36205;SDS011;22242;48.796;9.930;2022-11-20T09:04:54;2.53;;;1.63;;
36205;SDS011;22242;48.796;9.930;2022-11-20T09:07:21;1.88;;;1.40;;
36205;SDS011;22242;48.796;9.930;2022-11-20T09:09:48;1.50;;;1.40;;
36205;SDS011;22242;48.796;9.930;2022-11-20T09:12:14;2.92;;;1.50;;
36205;SDS011;22242;48.796;9.930;2022-11-20T09:14:41;1.95;;;1.83;;
36205;SDS011;22242;48.796;9.930;2022-11-20T09:17:11;1.48;;;1.20;;
36205;SDS011;22242;48.796;9.930;2022-11-20T09:19:39;1.60;;;1.45;;
36205;SDS011;22242;48.796;9.930;2022-11-20T09:22:07;2.03;;;1.38;;
36205;SDS011;22242;48.796;9.930;2022-11-20T09:24:34;4.45;;;1.95;;
36205;SDS011;22242;48.796;9.930;2022-11-20T09:27:01;4.35;;;2.55;;
36205;SDS011;22242;48.796;9.930;2022-11-20T09:29:30;2.83;;;1.75;;
36205;SDS011;22242;48.796;9.930;2022-11-20T09:31:56;2.35;;;1.80;;
36205;SDS011;22242;48.796;9.930;2022-11-20T09:34:25;2.88;;;2.20;;
36205;SDS011;22242;48.796;9.930;2022-11-20T09:36:51;3.00;;;2.15;;
36205;SDS011;22242;48.796;9.930;2022-11-20T09:39:18;1.40;;;1.00;;
36205;SDS011;22242;48.796;9.930;2022-11-20T09:41:57;1.70;;;0.90;;
36205;SDS011;22242;48.796;9.930;2022-11-20T09:44:47;1.42;;;1.23;;
36205;SDS011;22242;48.796;9.930;2022-11-20T09:47:24;3.03;;;1.15;;
36205;SDS011;22242;48.796;9.930;2022-11-20T09:50:05;2.75;;;2.05;;
36205;SDS011;22242;48.796;9.930;2022-11-20T09:52:45;3.17;;;1.88;;
36205;SDS011;22242;48.796;9.930;2022-11-20T09:55:20;2.85;;;1.52;;
36205;SDS011;22242;48.796;9.930;2022-11-20T09:57:48;1.08;;;0.90;;
36205;SDS011;22242;48.796;9.930;2022-11-20T10:00:18;2.28;;;0.90;;
36205;SDS011;22242;48.796;9.930;2022-11-20T10:02:47;1.67;;;1.17;;
36205;SDS011;22242;48.796;9.930;2022-11-20T10:05:20;1.15;;;0.77;;
36205;SDS011;22242;48.796;9.930;2022-11-20T10:07:52;2.05;;;1.40;;
36205;SDS011;22242;48.796;9.930;2022-11-20T10:10:28;1.15;;;1.05;;
36205;SDS011;22242;48.796;9.930;2022-11-20T10:13:03;1.20;;;1.10;;
36205;SDS011;22242;48.796;9.930;2022-11-20T10:15:45;0.93;;;0.93;;
36205;SDS011;22242;48.796;9.930;2022-11-20T10:18:26;1.35;;;1.08;;
36205;SDS011;22242;48.796;9.930;2022-11-20T10:21:07;0.80;;;0.80;;
36205;SDS011;22242;48.796;9.930;2022-11-20T10:23:44;2.22;;;1.17;;
36205;SDS011;22242;48.796;9.930;2022-11-20T10:26:28;1.23;;;0.90;;
36205;SDS011;22242;48.796;9.930;2022-11-20T10:29:09;1.25;;;1.10;;
36205;SDS011;22242;48.796;9.930;2022-11-20T10:31:39;1.85;;;1.10;;
36205;SDS011;22242;48.796;9.930;2022-11-20T10:34:12;1.88;;;0.93;;
36205;SDS011;22242;48.796;9.930;2022-11-20T10:36:49;1.33;;;1.15;;
36205;SDS011;22242;48.796;9.930;2022-11-20T10:39:22;1.30;;;1.20;;
36205;SDS011;22242;48.796;9.930;2022-11-20T10:41:56;1.35;;;1.25;;
36205;SDS011;22242;48.796;9.930;2022-11-20T10:44:26;0.90;;;0.90;;
36205;SDS011;22242;48.796;9.930;2022-11-20T10:47:12;2.38;;;0.90;;
36205;SDS011;22242;48.796;9.930;2022-11-20T10:49:40;1.45;;;1.15;;
36205;SDS011;22242;48.796;9.930;2022-11-20T10:52:11;0.95;;;0.95;;
36205;SDS011;22242;48.796;9.930;2022-11-20T10:54:47;2.75;;;1.80;;
36205;SDS011;22242;48.796;9.930;2022-11-20T10:57:24;1.38;;;1.20;;
36205;SDS011;22242;48.796;9.930;2022-11-20T11:00:02;1.13;;;1.02;;
36205;SDS011;22242;48.796;9.930;2022-11-20T11:02:32;1.73;;;1.20;;
36205;SDS011;22242;48.796;9.930;2022-11-20T11:05:04;2.40;;;1.15;;
36205;SDS011;22242;48.796;9.930;2022-11-20T11:07:41;2.15;;;1.00;;
36205;SDS011;22242;48.796;9.930;2022-11-20T11:10:14;3.22;;;1.42;;
36205;SDS011;22242;48.796;9.930;2022-11-20T11:12:43;5.72;;;2.85;;
36205;SDS011;22242;48.796;9.930;2022-11-20T11:15:12;16.45;;;4.90;;
36205;SDS011;22242;48.796;9.930;2022-11-20T11:17:51;15.02;;;5.43;;
36205;SDS011;22242;48.796;9.930;2022-11-20T11:20:18;1.83;;;1.65;;
36205;SDS011;22242;48.796;9.930;2022-11-20T11:22:49;2.15;;;1.35;;
36205;SDS011;22242;48.796;9.930;2022-11-20T11:25:22;1.60;;;1.45;;
36205;SDS011;22242;48.796;9.930;2022-11-20T11:30:20;2.13;;;1.70;;
36205;SDS011;22242;48.796;9.930;2022-11-20T11:32:48;2.97;;;1.90;;
36205;SDS011;22242;48.796;9.930;2022-11-20T11:35:19;1.60;;;1.50;;
36205;SDS011;22242;48.796;9.930;2022-11-20T11:37:50;2.05;;;1.50;;
36205;SDS011;22242;48.796;9.930;2022-11-20T11:40:19;1.85;;;1.58;;
36205;SDS011;22242;48.796;9.930;2022-11-20T11:42:49;2.47;;;1.00;;
36205;SDS011;22242;48.796;9.930;2022-11-20T11:45:20;1.63;;;1.20;;
36205;SDS011;22242;48.796;9.930;2022-11-20T11:47:47;2.08;;;1.88;;
36205;SDS011;22242;48.796;9.930;2022-11-20T11:50:16;6.40;;;3.35;;
36205;SDS011;22242;48.796;9.930;2022-11-20T11:52:45;1.75;;;1.65;;
36205;SDS011;22242;48.796;9.930;2022-11-20T11:55:25;1.45;;;1.35;;
36205;SDS011;22242;48.796;9.930;2022-11-20T11:57:57;1.45;;;1.35;;
36205;SDS011;22242;48.796;9.930;2022-11-20T12:00:41;1.25;;;0.95;;
36205;SDS011;22242;48.796;9.930;2022-11-20T12:03:18;1.83;;;1.20;;
36205;SDS011;22242;48.796;9.930;2022-11-20T12:05:49;1.95;;;1.15;;
36205;SDS011;22242;48.796;9.930;2022-11-20T12:08:25;1.10;;;0.90;;
36205;SDS011;22242;48.796;9.930;2022-11-20T12:10:57;1.25;;;1.15;;
36205;SDS011;22242;48.796;9.930;2022-11-20T12:13:44;2.00;;;1.77;;
36205;SDS011;22242;48.796;9.930;2022-11-20T12:16:14;4.43;;;3.00;;
36205;SDS011;22242;48.796;9.930;2022-11-20T12:18:45;2.15;;;1.95;;
36205;SDS011;22242;48.796;9.930;2022-11-20T12:21:26;1.33;;;1.23;;
36205;SDS011;22242;48.796;9.930;2022-11-20T12:24:04;2.05;;;1.20;;
36205;SDS011;22242;48.796;9.930;2022-11-20T12:26:47;0.65;;;0.65;;
36205;SDS011;22242;48.796;9.930;2022-11-20T12:29:24;3.03;;;1.08;;
36205;SDS011;22242;48.796;9.930;2022-11-20T12:32:06;1.65;;;1.30;;
36205;SDS011;22242;48.796;9.930;2022-11-20T12:34:56;1.85;;;1.17;;
36205;SDS011;22242;48.796;9.930;2022-11-20T12:37:33;4.30;;;2.55;;
36205;SDS011;22242;48.796;9.930;2022-11-20T12:40:14;2.03;;;1.80;;
36205;SDS011;22242;48.796;9.930;2022-11-20T12:42:56;3.03;;;1.80;;
36205;SDS011;22242;48.796;9.930;2022-11-20T12:45:54;2.03;;;1.40;;
36205;SDS011;22242;48.796;9.930;2022-11-20T12:48:44;2.35;;;1.13;;
36205;SDS011;22242;48.796;9.930;2022-11-20T12:51:44;1.90;;;1.38;;
36205;SDS011;22242;48.796;9.930;2022-11-20T12:54:26;3.13;;;1.65;;
36205;SDS011;22242;48.796;9.930;2022-11-20T12:57:09;1.90;;;1.55;;
36205;SDS011;22242;48.796;9.930;2022-11-20T12:59:57;2.72;;;1.40;;
36205;SDS011;22242;48.796;9.930;2022-11-20T13:02:35;3.15;;;2.13;;
36205;SDS011;22242;48.796;9.930;2022-11-20T13:05:17;1.83;;;1.55;;
36205;SDS011;22242;48.796;9.930;2022-11-20T13:07:47;2.63;;;1.30;;
36205;SDS011;22242;48.796;9.930;2022-11-20T13:10:19;3.03;;;1.73;;
36205;SDS011;22242;48.796;9.930;2022-11-20T13:12:54;2.97;;;1.70;;
36205;SDS011;22242;48.796;9.930;2022-11-20T13:15:31;2.80;;;1.80;;
36205;SDS011;22242;48.796;9.930;2022-11-20T13:18:11;3.05;;;1.58;;
36205;SDS011;22242;48.796;9.930;2022-11-20T13:20:42;3.50;;;1.90;;
36205;SDS011;22242;48.796;9.930;2022-11-20T13:23:10;1.45;;;1.30;;
36205;SDS011;22242;48.796;9.930;2022-11-20T13:25:37;2.33;;;1.58;;
36205;SDS011;22242;48.796;9.930;2022-11-20T13:30:56;3.33;;;1.50;;
36205;SDS011;22242;48.796;9.930;2022-11-20T13:33:26;3.60;;;1.77;;
36205;SDS011;22242;48.796;9.930;2022-11-20T13:35:56;2.30;;;1.60;;
36205;SDS011;22242;48.796;9.930;2022-11-20T13:38:25;3.80;;;2.10;;
36205;SDS011;22242;48.796;9.930;2022-11-20T13:40:53;3.53;;;1.65;;
36205;SDS011;22242;48.796;9.930;2022-11-20T13:43:23;2.05;;;1.60;;
36205;SDS011;22242;48.796;9.930;2022-11-20T13:46:01;4.88;;;1.70;;
36205;SDS011;22242;48.796;9.930;2022-11-20T13:48:30;1.58;;;1.23;;
36205;SDS011;22242;48.796;9.930;2022-11-20T13:57:02;4.35;;;1.83;;
36205;SDS011;22242;48.796;9.930;2022-11-20T13:59:42;3.22;;;2.00;;
36205;SDS011;22242;48.796;9.930;2022-11-20T14:02:18;3.63;;;1.98;;
36205;SDS011;22242;48.796;9.930;2022-11-20T14:04:47;1.42;;;1.33;;
36205;SDS011;22242;48.796;9.930;2022-11-20T14:07:16;2.13;;;1.58;;
36205;SDS011;22242;48.796;9.930;2022-11-20T14:09:50;7.10;;;2.67;;
36205;SDS011;22242;48.796;9.930;2022-11-20T14:12:19;4.47;;;1.70;;
36205;SDS011;22242;48.796;9.930;2022-11-20T14:14:49;1.63;;;1.50;;
36205;SDS011;22242;48.796;9.930;2022-11-20T14:17:18;3.45;;;1.40;;
36205;SDS011;22242;48.796;9.930;2022-11-20T14:19:47;5.63;;;2.90;;
36205;SDS011;22242;48.796;9.930;2022-11-20T14:22:17;2.45;;;1.77;;
36205;SDS011;22242;48.796;9.930;2022-11-20T14:24:46;9.13;;;2.35;;
36205;SDS011;22242;48.796;9.930;2022-11-20T14:27:14;2.67;;;1.45;;
36205;SDS011;22242;48.796;9.930;2022-11-20T14:29:43;3.47;;;1.80;;
36205;SDS011;22242;48.796;9.930;2022-11-20T14:32:15;4.10;;;2.20;;
36205;SDS011;22242;48.796;9.930;2022-11-20T14:34:43;5.15;;;2.72;;
36205;SDS011;22242;48.796;9.930;2022-11-20T14:37:12;11.00;;;3.50;;
36205;SDS011;22242;48.796;9.930;2022-11-20T14:39:48;2.08;;;1.40;;
36205;SDS011;22242;48.796;9.930;2022-11-20T14:42:17;2.67;;;1.35;;
36205;SDS011;22242;48.796;9.930;2022-11-20T14:44:46;3.53;;;1.35;;
36205;SDS011;22242;48.796;9.930;2022-11-20T14:47:17;7.10;;;1.52;;
36205;SDS011;22242;48.796;9.930;2022-11-20T14:49:48;2.58;;;1.50;;
36205;SDS011;22242;48.796;9.930;2022-11-20T14:52:17;2.20;;;1.00;;
36205;SDS011;22242;48.796;9.930;2022-11-20T14:54:45;5.60;;;1.88;;
36205;SDS011;22242;48.796;9.930;2022-11-20T14:57:21;2.25;;;1.63;;
36205;SDS011;22242;48.796;9.930;2022-11-20T15:00:03;2.60;;;1.20;;
36205;SDS011;22242;48.796;9.930;2022-11-20T15:02:33;1.55;;;0.88;;
36205;SDS011;22242;48.796;9.930;2022-11-20T15:05:01;7.57;;;2.97;;
36205;SDS011;22242;48.796;9.930;2022-11-20T15:07:30;5.82;;;2.33;;
36205;SDS011;22242;48.796;9.930;2022-11-20T15:09:59;2.70;;;1.10;;
36205;SDS011;22242;48.796;9.930;2022-11-20T15:12:27;4.05;;;1.33;;
36205;SDS011;22242;48.796;9.930;2022-11-20T15:14:55;3.50;;;1.15;;
36205;SDS011;22242;48.796;9.930;2022-11-20T15:17:22;3.40;;;1.30;;